sensor_id;sensor_type;location;lat;lon;timestamp;P1;durP1;ratioP1;P2;durP2;ratioP2
57605;SDS011;43430;48.204;11.556;2022-07-01T00:01:56;3.47;;;1.58;;
57605;SDS011;43430;48.204;11.556;2022-07-01T00:04:21;3.88;;;2.15;;
57605;SDS011;43430;48.204;11.556;2022-07-01T00:06:50;2.90;;;1.88;;
57605;SDS011;43430;48.204;11.556;2022-07-01T00:09:16;5.32;;;1.95;;
57605;SDS011;43430;48.204;11.556;2022-07-01T00:11:41;8.07;;;2.60;;
57605;SDS011;43430;48.204;11.556;2022-07-01T00:14:07;4.28;;;1.80;;
57605;SDS011;43430;48.204;11.556;2022-07-01T00:16:32;3.60;;;2.00;;
57605;SDS011;43430;48.204;11.556;2022-07-01T00:18:58;4.70;;;2.67;;
57605;SDS011;43430;48.204;11.556;2022-07-01T00:21:23;3.92;;;2.20;;
57605;SDS011;43430;48.204;11.556;2022-07-01T00:23:48;4.00;;;2.10;;
57605;SDS011;43430;48.204;11.556;2022-07-01T00:26:14;3.58;;;1.85;;
57605;SDS011;43430;48.204;11.556;2022-07-01T00:28:39;5.13;;;2.25;;
57605;SDS011;43430;48.204;11.556;2022-07-01T00:31:04;2.75;;;1.67;;
57605;SDS011;43430;48.204;11.556;2022-07-01T00:33:30;4.55;;;1.92;;
57605;SDS011;43430;48.204;11.556;2022-07-01T00:35:55;4.15;;;2.00;;
57605;SDS011;43430;48.204;11.556;2022-07-01T00:38:21;8.00;;;2.15;;
57605;SDS011;43430;48.204;11.556;2022-07-01T00:40:54;3.55;;;1.83;;
57605;SDS011;43430;48.204;11.556;2022-07-01T00:43:19;6.30;;;1.98;;
57605;SDS011;43430;48.204;11.556;2022-07-01T00:45:48;3.88;;;1.60;;
57605;SDS011;43430;48.204;11.556;2022-07-01T00:48:14;3.67;;;1.58;;
57605;SDS011;43430;48.204;11.556;2022-07-01T00:50:40;3.85;;;1.60;;
57605;SDS011;43430;48.204;11.556;2022-07-01T00:53:05;2.90;;;1.63;;
57605;SDS011;43430;48.204;11.556;2022-07-01T00:55:31;2.88;;;1.63;;
57605;SDS011;43430;48.204;11.556;2022-07-01T00:57:57;2.53;;;1.65;;
57605;SDS011;43430;48.204;11.556;2022-07-01T01:00:23;5.90;;;1.58;;
57605;SDS011;43430;48.204;11.556;2022-07-01T01:02:49;4.35;;;1.60;;
57605;SDS011;43430;48.204;11.556;2022-07-01T01:05:15;2.38;;;0.98;;
57605;SDS011;43430;48.204;11.556;2022-07-01T01:07:42;2.47;;;0.82;;
57605;SDS011;43430;48.204;11.556;2022-07-01T01:10:08;2.58;;;1.20;;
57605;SDS011;43430;48.204;11.556;2022-07-01T01:12:34;1.77;;;0.88;;
57605;SDS011;43430;48.204;11.556;2022-07-01T01:15:00;1.73;;;0.50;;
57605;SDS011;43430;48.204;11.556;2022-07-01T01:17:26;1.38;;;0.50;;
57605;SDS011;43430;48.204;11.556;2022-07-01T01:19:52;1.60;;;0.40;;
57605;SDS011;43430;48.204;11.556;2022-07-01T01:22:18;1.10;;;0.30;;
57605;SDS011;43430;48.204;11.556;2022-07-01T01:24:44;0.90;;;0.20;;
57605;SDS011;43430;48.204;11.556;2022-07-01T01:27:12;0.95;;;0.20;;
57605;SDS011;43430;48.204;11.556;2022-07-01T01:29:39;0.82;;;0.30;;
57605;SDS011;43430;48.204;11.556;2022-07-01T01:32:05;1.73;;;0.20;;
57605;SDS011;43430;48.204;11.556;2022-07-01T01:34:32;1.00;;;0.20;;
57605;SDS011;43430;48.204;11.556;2022-07-01T01:36:58;0.93;;;0.20;;
57605;SDS011;43430;48.204;11.556;2022-07-01T01:39:24;2.03;;;0.10;;
57605;SDS011;43430;48.204;11.556;2022-07-01T01:41:50;1.00;;;0.30;;
57605;SDS011;43430;48.204;11.556;2022-07-01T01:44:15;0.98;;;0.20;;
57605;SDS011;43430;48.204;11.556;2022-07-01T01:46:40;3.28;;;0.20;;
57605;SDS011;43430;48.204;11.556;2022-07-01T01:49:06;0.80;;;0.28;;
57605;SDS011;43430;48.204;11.556;2022-07-01T01:51:32;0.93;;;0.22;;
57605;SDS011;43430;48.204;11.556;2022-07-01T01:53:59;0.77;;;0.20;;
57605;SDS011;43430;48.204;11.556;2022-07-01T01:56:24;1.05;;;0.20;;
57605;SDS011;43430;48.204;11.556;2022-07-01T01:58:51;0.50;;;0.13;;
57605;SDS011;43430;48.204;11.556;2022-07-01T02:01:17;1.10;;;0.20;;
57605;SDS011;43430;48.204;11.556;2022-07-01T02:03:43;0.85;;;0.25;;
57605;SDS011;43430;48.204;11.556;2022-07-01T02:06:10;0.85;;;0.20;;
57605;SDS011;43430;48.204;11.556;2022-07-01T02:08:39;1.73;;;0.30;;
57605;SDS011;43430;48.204;11.556;2022-07-01T02:11:05;0.85;;;0.20;;
57605;SDS011;43430;48.204;11.556;2022-07-01T02:13:32;0.68;;;0.20;;
57605;SDS011;43430;48.204;11.556;2022-07-01T02:15:57;0.63;;;0.10;;
57605;SDS011;43430;48.204;11.556;2022-07-01T02:18:23;1.48;;;0.20;;
57605;SDS011;43430;48.204;11.556;2022-07-01T02:20:48;0.93;;;0.28;;
57605;SDS011;43430;48.204;11.556;2022-07-01T02:23:14;0.82;;;0.20;;
57605;SDS011;43430;48.204;11.556;2022-07-01T02:25:40;0.90;;;0.20;;
57605;SDS011;43430;48.204;11.556;2022-07-01T02:28:05;1.90;;;0.10;;
57605;SDS011;43430;48.204;11.556;2022-07-01T02:30:31;0.63;;;0.20;;
57605;SDS011;43430;48.204;11.556;2022-07-01T02:33:00;0.57;;;0.10;;
57605;SDS011;43430;48.204;11.556;2022-07-01T02:35:25;3.35;;;0.13;;
57605;SDS011;43430;48.204;11.556;2022-07-01T02:37:51;0.57;;;0.20;;
57605;SDS011;43430;48.204;11.556;2022-07-01T02:40:16;1.15;;;0.38;;
57605;SDS011;43430;48.204;11.556;2022-07-01T02:42:41;1.60;;;0.20;;
57605;SDS011;43430;48.204;11.556;2022-07-01T02:45:07;0.52;;;0.10;;
57605;SDS011;43430;48.204;11.556;2022-07-01T02:47:39;1.20;;;0.20;;
57605;SDS011;43430;48.204;11.556;2022-07-01T02:50:07;1.10;;;0.20;;
57605;SDS011;43430;48.204;11.556;2022-07-01T02:52:34;0.80;;;0.20;;
57605;SDS011;43430;48.204;11.556;2022-07-01T02:55:01;0.95;;;0.20;;
57605;SDS011;43430;48.204;11.556;2022-07-01T02:57:27;1.45;;;0.30;;
57605;SDS011;43430;48.204;11.556;2022-07-01T02:59:52;0.93;;;0.20;;
57605;SDS011;43430;48.204;11.556;2022-07-01T03:02:18;1.55;;;0.22;;
57605;SDS011;43430;48.204;11.556;2022-07-01T03:04:45;1.05;;;0.30;;
57605;SDS011;43430;48.204;11.556;2022-07-01T03:07:11;0.80;;;0.20;;
57605;SDS011;43430;48.204;11.556;2022-07-01T03:09:36;0.60;;;0.20;;
57605;SDS011;43430;48.204;11.556;2022-07-01T03:12:04;1.05;;;0.20;;
57605;SDS011;43430;48.204;11.556;2022-07-01T03:14:52;0.80;;;0.20;;
57605;SDS011;43430;48.204;11.556;2022-07-01T03:17:18;0.75;;;0.20;;
57605;SDS011;43430;48.204;11.556;2022-07-01T03:19:44;1.38;;;0.30;;
57605;SDS011;43430;48.204;11.556;2022-07-01T03:22:10;0.57;;;0.20;;
57605;SDS011;43430;48.204;11.556;2022-07-01T03:24:35;1.70;;;0.20;;
57605;SDS011;43430;48.204;11.556;2022-07-01T03:27:00;1.17;;;0.20;;
57605;SDS011;43430;48.204;11.556;2022-07-01T03:29:26;1.90;;;0.30;;
57605;SDS011;43430;48.204;11.556;2022-07-01T03:31:51;1.63;;;0.20;;
57605;SDS011;43430;48.204;11.556;2022-07-01T03:34:17;0.82;;;0.20;;
57605;SDS011;43430;48.204;11.556;2022-07-01T03:36:42;2.75;;;0.25;;
57605;SDS011;43430;48.204;11.556;2022-07-01T03:39:07;2.72;;;0.30;;
57605;SDS011;43430;48.204;11.556;2022-07-01T03:41:33;0.70;;;0.25;;
57605;SDS011;43430;48.204;11.556;2022-07-01T03:43:59;0.80;;;0.25;;
57605;SDS011;43430;48.204;11.556;2022-07-01T03:46:24;1.98;;;0.30;;
57605;SDS011;43430;48.204;11.556;2022-07-01T03:48:49;0.85;;;0.30;;
57605;SDS011;43430;48.204;11.556;2022-07-01T03:51:15;0.70;;;0.30;;
57605;SDS011;43430;48.204;11.556;2022-07-01T03:53:40;1.15;;;0.20;;
57605;SDS011;43430;48.204;11.556;2022-07-01T03:56:24;0.80;;;0.20;;
57605;SDS011;43430;48.204;11.556;2022-07-01T03:58:49;3.53;;;0.40;;
57605;SDS011;43430;48.204;11.556;2022-07-01T04:01:15;0.98;;;0.20;;
57605;SDS011;43430;48.204;11.556;2022-07-01T04:03:40;1.38;;;0.28;;
57605;SDS011;43430;48.204;11.556;2022-07-01T04:06:05;0.60;;;0.20;;
57605;SDS011;43430;48.204;11.556;2022-07-01T04:08:31;1.80;;;0.22;;
57605;SDS011;43430;48.204;11.556;2022-07-01T04:10:56;1.27;;;0.30;;
57605;SDS011;43430;48.204;11.556;2022-07-01T04:13:22;1.25;;;0.20;;
57605;SDS011;43430;48.204;11.556;2022-07-01T04:15:48;1.17;;;0.30;;
57605;SDS011;43430;48.204;11.556;2022-07-01T04:18:13;0.80;;;0.20;;
57605;SDS011;43430;48.204;11.556;2022-07-01T04:20:38;1.50;;;0.30;;
57605;SDS011;43430;48.204;11.556;2022-07-01T04:23:04;1.15;;;0.20;;
57605;SDS011;43430;48.204;11.556;2022-07-01T04:25:29;0.73;;;0.22;;
57605;SDS011;43430;48.204;11.556;2022-07-01T04:27:55;0.65;;;0.20;;
57605;SDS011;43430;48.204;11.556;2022-07-01T04:30:22;1.20;;;0.20;;
57605;SDS011;43430;48.204;11.556;2022-07-01T04:32:47;0.95;;;0.30;;
57605;SDS011;43430;48.204;11.556;2022-07-01T04:35:12;0.85;;;0.20;;
57605;SDS011;43430;48.204;11.556;2022-07-01T04:37:39;1.63;;;0.30;;
57605;SDS011;43430;48.204;11.556;2022-07-01T04:40:07;1.42;;;0.25;;
57605;SDS011;43430;48.204;11.556;2022-07-01T04:42:33;0.80;;;0.20;;
57605;SDS011;43430;48.204;11.556;2022-07-01T04:44:58;1.00;;;0.22;;
57605;SDS011;43430;48.204;11.556;2022-07-01T04:47:23;0.90;;;0.30;;
57605;SDS011;43430;48.204;11.556;2022-07-01T04:49:49;1.10;;;0.30;;
57605;SDS011;43430;48.204;11.556;2022-07-01T04:52:14;2.10;;;0.30;;
57605;SDS011;43430;48.204;11.556;2022-07-01T04:54:40;0.90;;;0.20;;
57605;SDS011;43430;48.204;11.556;2022-07-01T04:57:06;0.95;;;0.30;;
57605;SDS011;43430;48.204;11.556;2022-07-01T04:59:31;1.98;;;0.20;;
57605;SDS011;43430;48.204;11.556;2022-07-01T05:01:57;0.70;;;0.20;;
57605;SDS011;43430;48.204;11.556;2022-07-01T05:04:23;0.95;;;0.30;;
57605;SDS011;43430;48.204;11.556;2022-07-01T05:06:51;0.93;;;0.28;;
57605;SDS011;43430;48.204;11.556;2022-07-01T05:09:16;2.45;;;0.30;;
57605;SDS011;43430;48.204;11.556;2022-07-01T05:11:42;1.63;;;0.20;;
57605;SDS011;43430;48.204;11.556;2022-07-01T05:14:07;0.90;;;0.20;;
57605;SDS011;43430;48.204;11.556;2022-07-01T05:16:33;1.10;;;0.30;;
57605;SDS011;43430;48.204;11.556;2022-07-01T05:18:59;1.42;;;0.30;;
57605;SDS011;43430;48.204;11.556;2022-07-01T05:21:43;1.05;;;0.20;;
57605;SDS011;43430;48.204;11.556;2022-07-01T05:24:20;1.08;;;0.20;;
57605;SDS011;43430;48.204;11.556;2022-07-01T05:26:46;1.25;;;0.25;;
57605;SDS011;43430;48.204;11.556;2022-07-01T05:29:11;1.55;;;0.52;;
57605;SDS011;43430;48.204;11.556;2022-07-01T05:31:37;0.82;;;0.20;;
57605;SDS011;43430;48.204;11.556;2022-07-01T05:34:02;0.98;;;0.20;;
57605;SDS011;43430;48.204;11.556;2022-07-01T05:36:27;1.58;;;0.30;;
57605;SDS011;43430;48.204;11.556;2022-07-01T05:38:53;2.45;;;0.50;;
57605;SDS011;43430;48.204;11.556;2022-07-01T05:41:18;1.45;;;0.30;;
57605;SDS011;43430;48.204;11.556;2022-07-01T05:43:44;2.00;;;0.20;;
57605;SDS011;43430;48.204;11.556;2022-07-01T05:46:09;1.08;;;0.30;;
57605;SDS011;43430;48.204;11.556;2022-07-01T05:48:35;1.10;;;0.30;;
57605;SDS011;43430;48.204;11.556;2022-07-01T05:51:00;0.98;;;0.25;;
57605;SDS011;43430;48.204;11.556;2022-07-01T05:53:25;1.10;;;0.30;;
57605;SDS011;43430;48.204;11.556;2022-07-01T05:55:50;1.20;;;0.20;;
57605;SDS011;43430;48.204;11.556;2022-07-01T05:58:16;0.90;;;0.20;;
57605;SDS011;43430;48.204;11.556;2022-07-01T06:00:42;1.75;;;0.32;;
57605;SDS011;43430;48.204;11.556;2022-07-01T06:03:08;1.77;;;0.40;;
57605;SDS011;43430;48.204;11.556;2022-07-01T06:05:35;1.20;;;0.30;;
57605;SDS011;43430;48.204;11.556;2022-07-01T06:08:01;1.23;;;0.20;;
57605;SDS011;43430;48.204;11.556;2022-07-01T06:10:26;1.23;;;0.70;;
57605;SDS011;43430;48.204;11.556;2022-07-01T06:12:51;1.23;;;0.30;;
57605;SDS011;43430;48.204;11.556;2022-07-01T06:15:17;0.55;;;0.20;;
57605;SDS011;43430;48.204;11.556;2022-07-01T06:17:42;1.10;;;0.20;;
57605;SDS011;43430;48.204;11.556;2022-07-01T06:20:08;1.65;;;0.40;;
57605;SDS011;43430;48.204;11.556;2022-07-01T06:22:34;0.82;;;0.30;;
57605;SDS011;43430;48.204;11.556;2022-07-01T06:25:00;2.42;;;0.40;;
57605;SDS011;43430;48.204;11.556;2022-07-01T06:27:26;0.95;;;0.22;;
57605;SDS011;43430;48.204;11.556;2022-07-01T06:29:52;0.95;;;0.30;;
57605;SDS011;43430;48.204;11.556;2022-07-01T06:32:17;1.10;;;0.25;;
57605;SDS011;43430;48.204;11.556;2022-07-01T06:34:43;0.90;;;0.22;;
57605;SDS011;43430;48.204;11.556;2022-07-01T06:37:08;0.75;;;0.20;;
57605;SDS011;43430;48.204;11.556;2022-07-01T06:39:34;0.95;;;0.20;;
57605;SDS011;43430;48.204;11.556;2022-07-01T06:41:59;0.70;;;0.20;;
57605;SDS011;43430;48.204;11.556;2022-07-01T06:44:24;1.02;;;0.30;;
57605;SDS011;43430;48.204;11.556;2022-07-01T06:46:50;0.60;;;0.20;;
57605;SDS011;43430;48.204;11.556;2022-07-01T06:49:15;2.50;;;0.30;;
57605;SDS011;43430;48.204;11.556;2022-07-01T06:51:41;0.68;;;0.20;;
57605;SDS011;43430;48.204;11.556;2022-07-01T06:54:06;1.65;;;0.30;;
57605;SDS011;43430;48.204;11.556;2022-07-01T06:56:32;1.23;;;0.30;;
57605;SDS011;43430;48.204;11.556;2022-07-01T06:58:57;0.93;;;0.20;;
57605;SDS011;43430;48.204;11.556;2022-07-01T07:01:23;1.20;;;0.20;;
57605;SDS011;43430;48.204;11.556;2022-07-01T07:03:49;1.00;;;0.40;;
57605;SDS011;43430;48.204;11.556;2022-07-01T07:06:15;1.15;;;0.30;;
57605;SDS011;43430;48.204;11.556;2022-07-01T07:08:40;3.17;;;1.45;;
57605;SDS011;43430;48.204;11.556;2022-07-01T07:11:06;0.63;;;0.22;;
57605;SDS011;43430;48.204;11.556;2022-07-01T07:13:33;1.50;;;0.30;;
57605;SDS011;43430;48.204;11.556;2022-07-01T07:16:02;1.15;;;0.50;;
57605;SDS011;43430;48.204;11.556;2022-07-01T07:18:27;1.58;;;0.40;;
57605;SDS011;43430;48.204;11.556;2022-07-01T07:20:53;0.80;;;0.20;;
57605;SDS011;43430;48.204;11.556;2022-07-01T07:23:18;1.48;;;0.32;;
57605;SDS011;43430;48.204;11.556;2022-07-01T07:25:44;1.33;;;0.43;;
57605;SDS011;43430;48.204;11.556;2022-07-01T07:28:09;1.67;;;0.40;;
57605;SDS011;43430;48.204;11.556;2022-07-01T07:30:35;1.70;;;0.50;;
57605;SDS011;43430;48.204;11.556;2022-07-01T07:33:00;1.98;;;0.80;;
57605;SDS011;43430;48.204;11.556;2022-07-01T07:35:26;2.15;;;0.98;;
57605;SDS011;43430;48.204;11.556;2022-07-01T07:37:51;2.67;;;1.10;;
57605;SDS011;43430;48.204;11.556;2022-07-01T07:40:16;6.13;;;2.30;;
57605;SDS011;43430;48.204;11.556;2022-07-01T07:42:45;3.78;;;1.80;;
57605;SDS011;43430;48.204;11.556;2022-07-01T07:45:12;3.00;;;1.70;;
57605;SDS011;43430;48.204;11.556;2022-07-01T07:47:41;4.05;;;1.50;;
57605;SDS011;43430;48.204;11.556;2022-07-01T07:50:11;3.07;;;1.50;;
57605;SDS011;43430;48.204;11.556;2022-07-01T07:52:37;2.35;;;0.95;;
57605;SDS011;43430;48.204;11.556;2022-07-01T07:55:03;2.30;;;1.08;;
57605;SDS011;43430;48.204;11.556;2022-07-01T07:57:30;5.50;;;0.98;;
57605;SDS011;43430;48.204;11.556;2022-07-01T07:59:56;2.78;;;0.98;;
57605;SDS011;43430;48.204;11.556;2022-07-01T08:02:21;2.60;;;0.90;;
57605;SDS011;43430;48.204;11.556;2022-07-01T08:04:47;4.22;;;1.10;;
57605;SDS011;43430;48.204;11.556;2022-07-01T08:07:12;1.77;;;0.82;;
57605;SDS011;43430;48.204;11.556;2022-07-01T08:09:37;2.90;;;0.70;;
57605;SDS011;43430;48.204;11.556;2022-07-01T08:12:03;1.00;;;0.20;;
57605;SDS011;43430;48.204;11.556;2022-07-01T08:14:29;1.98;;;0.20;;
57605;SDS011;43430;48.204;11.556;2022-07-01T08:16:54;0.30;;;0.10;;
57605;SDS011;43430;48.204;11.556;2022-07-01T08:19:20;0.88;;;0.17;;
57605;SDS011;43430;48.204;11.556;2022-07-01T08:21:45;0.82;;;0.20;;
57605;SDS011;43430;48.204;11.556;2022-07-01T08:24:11;1.73;;;0.20;;
57605;SDS011;43430;48.204;11.556;2022-07-01T08:26:36;0.75;;;0.10;;
57605;SDS011;43430;48.204;11.556;2022-07-01T08:29:02;1.35;;;0.30;;
57605;SDS011;43430;48.204;11.556;2022-07-01T08:31:27;1.48;;;0.20;;
57605;SDS011;43430;48.204;11.556;2022-07-01T08:33:53;1.27;;;0.13;;
57605;SDS011;43430;48.204;11.556;2022-07-01T08:36:18;3.80;;;0.43;;
57605;SDS011;43430;48.204;11.556;2022-07-01T08:38:43;0.63;;;0.13;;
57605;SDS011;43430;48.204;11.556;2022-07-01T08:41:09;0.90;;;0.10;;
57605;SDS011;43430;48.204;11.556;2022-07-01T08:43:34;1.38;;;0.20;;
57605;SDS011;43430;48.204;11.556;2022-07-01T08:46:00;1.77;;;0.10;;
57605;SDS011;43430;48.204;11.556;2022-07-01T08:48:27;1.67;;;0.20;;
57605;SDS011;43430;48.204;11.556;2022-07-01T08:50:53;2.13;;;0.15;;
57605;SDS011;43430;48.204;11.556;2022-07-01T08:53:19;0.85;;;0.17;;
57605;SDS011;43430;48.204;11.556;2022-07-01T08:55:44;1.98;;;0.20;;
57605;SDS011;43430;48.204;11.556;2022-07-01T08:58:29;1.98;;;0.25;;
57605;SDS011;43430;48.204;11.556;2022-07-01T09:03:38;0.60;;;0.20;;
57605;SDS011;43430;48.204;11.556;2022-07-01T09:06:04;1.88;;;0.38;;
57605;SDS011;43430;48.204;11.556;2022-07-01T09:08:41;1.38;;;0.20;;
57605;SDS011;43430;48.204;11.556;2022-07-01T09:11:17;0.70;;;0.20;;
57605;SDS011;43430;48.204;11.556;2022-07-01T09:13:45;1.02;;;0.28;;
57605;SDS011;43430;48.204;11.556;2022-07-01T09:16:31;1.17;;;0.20;;
57605;SDS011;43430;48.204;11.556;2022-07-01T09:19:05;0.90;;;0.20;;
57605;SDS011;43430;48.204;11.556;2022-07-01T09:21:30;1.38;;;0.10;;
57605;SDS011;43430;48.204;11.556;2022-07-01T09:23:58;1.40;;;0.20;;
57605;SDS011;43430;48.204;11.556;2022-07-01T09:26:24;1.63;;;0.20;;
57605;SDS011;43430;48.204;11.556;2022-07-01T09:28:55;1.75;;;0.20;;
57605;SDS011;43430;48.204;11.556;2022-07-01T09:31:47;0.93;;;0.20;;
57605;SDS011;43430;48.204;11.556;2022-07-01T09:34:12;0.63;;;0.30;;
57605;SDS011;43430;48.204;11.556;2022-07-01T09:36:38;1.13;;;0.20;;
57605;SDS011;43430;48.204;11.556;2022-07-01T09:39:06;0.50;;;0.10;;
57605;SDS011;43430;48.204;11.556;2022-07-01T09:41:38;2.30;;;0.10;;
57605;SDS011;43430;48.204;11.556;2022-07-01T09:44:08;0.60;;;0.10;;
57605;SDS011;43430;48.204;11.556;2022-07-01T09:46:34;0.50;;;0.15;;
57605;SDS011;43430;48.204;11.556;2022-07-01T09:49:00;1.92;;;0.30;;
57605;SDS011;43430;48.204;11.556;2022-07-01T09:51:26;3.05;;;0.25;;
57605;SDS011;43430;48.204;11.556;2022-07-01T09:53:53;0.70;;;0.10;;
57605;SDS011;43430;48.204;11.556;2022-07-01T09:56:19;0.98;;;0.30;;
57605;SDS011;43430;48.204;11.556;2022-07-01T09:58:44;1.13;;;0.20;;
57605;SDS011;43430;48.204;11.556;2022-07-01T10:01:10;0.55;;;0.10;;
57605;SDS011;43430;48.204;11.556;2022-07-01T10:03:36;0.70;;;0.10;;
57605;SDS011;43430;48.204;11.556;2022-07-01T10:09:02;1.92;;;0.10;;
57605;SDS011;43430;48.204;11.556;2022-07-01T10:11:39;0.93;;;0.15;;
57605;SDS011;43430;48.204;11.556;2022-07-01T10:14:26;0.75;;;0.20;;
57605;SDS011;43430;48.204;11.556;2022-07-01T10:16:54;0.98;;;0.20;;
57605;SDS011;43430;48.204;11.556;2022-07-01T10:21:45;0.70;;;0.10;;
57605;SDS011;43430;48.204;11.556;2022-07-01T10:24:11;1.00;;;0.10;;
57605;SDS011;43430;48.204;11.556;2022-07-01T10:26:38;0.80;;;0.30;;
57605;SDS011;43430;48.204;11.556;2022-07-01T10:29:05;0.80;;;0.20;;
57605;SDS011;43430;48.204;11.556;2022-07-01T10:31:36;0.80;;;0.10;;
57605;SDS011;43430;48.204;11.556;2022-07-01T10:34:02;1.42;;;0.20;;
57605;SDS011;43430;48.204;11.556;2022-07-01T10:36:32;0.90;;;0.30;;
57605;SDS011;43430;48.204;11.556;2022-07-01T10:44:10;0.52;;;0.10;;
57605;SDS011;43430;48.204;11.556;2022-07-01T10:46:40;0.60;;;0.10;;
57605;SDS011;43430;48.204;11.556;2022-07-01T10:52:05;0.60;;;0.10;;
57605;SDS011;43430;48.204;11.556;2022-07-01T10:59:42;0.47;;;0.10;;
57605;SDS011;43430;48.204;11.556;2022-07-01T11:02:11;0.52;;;0.10;;
57605;SDS011;43430;48.204;11.556;2022-07-01T11:04:39;1.08;;;0.20;;
57605;SDS011;43430;48.204;11.556;2022-07-01T11:07:04;1.13;;;0.20;;
57605;SDS011;43430;48.204;11.556;2022-07-01T11:09:30;0.70;;;0.20;;
57605;SDS011;43430;48.204;11.556;2022-07-01T11:11:55;1.58;;;0.20;;
57605;SDS011;43430;48.204;11.556;2022-07-01T11:14:22;0.65;;;0.10;;
57605;SDS011;43430;48.204;11.556;2022-07-01T11:16:47;0.80;;;0.10;;
57605;SDS011;43430;48.204;11.556;2022-07-01T11:19:13;0.98;;;0.30;;
57605;SDS011;43430;48.204;11.556;2022-07-01T11:21:49;2.03;;;0.20;;
57605;SDS011;43430;48.204;11.556;2022-07-01T11:24:22;0.95;;;0.10;;
57605;SDS011;43430;48.204;11.556;2022-07-01T11:26:48;1.25;;;0.35;;
57605;SDS011;43430;48.204;11.556;2022-07-01T11:29:14;1.17;;;0.20;;
57605;SDS011;43430;48.204;11.556;2022-07-01T11:31:49;1.00;;;0.20;;
57605;SDS011;43430;48.204;11.556;2022-07-01T11:34:15;0.90;;;0.28;;
57605;SDS011;43430;48.204;11.556;2022-07-01T11:36:42;1.33;;;0.10;;
57605;SDS011;43430;48.204;11.556;2022-07-01T11:39:27;0.60;;;0.20;;
57605;SDS011;43430;48.204;11.556;2022-07-01T11:41:58;1.30;;;0.20;;
57605;SDS011;43430;48.204;11.556;2022-07-01T11:46:54;1.25;;;0.30;;
57605;SDS011;43430;48.204;11.556;2022-07-01T11:49:19;1.10;;;0.20;;
57605;SDS011;43430;48.204;11.556;2022-07-01T11:52:02;0.82;;;0.25;;
57605;SDS011;43430;48.204;11.556;2022-07-01T11:54:30;0.98;;;0.30;;
57605;SDS011;43430;48.204;11.556;2022-07-01T11:57:07;1.48;;;0.40;;
57605;SDS011;43430;48.204;11.556;2022-07-01T11:59:53;1.00;;;0.20;;
57605;SDS011;43430;48.204;11.556;2022-07-01T12:02:20;1.10;;;0.40;;
57605;SDS011;43430;48.204;11.556;2022-07-01T12:04:49;1.00;;;0.30;;
57605;SDS011;43430;48.204;11.556;2022-07-01T12:07:16;1.20;;;0.20;;
57605;SDS011;43430;48.204;11.556;2022-07-01T12:09:46;1.17;;;0.20;;
57605;SDS011;43430;48.204;11.556;2022-07-01T12:12:17;1.65;;;0.40;;
57605;SDS011;43430;48.204;11.556;2022-07-01T12:14:53;2.40;;;0.30;;
57605;SDS011;43430;48.204;11.556;2022-07-01T12:17:23;2.05;;;0.22;;
57605;SDS011;43430;48.204;11.556;2022-07-01T12:19:50;1.60;;;0.50;;
57605;SDS011;43430;48.204;11.556;2022-07-01T12:22:18;2.67;;;0.50;;
57605;SDS011;43430;48.204;11.556;2022-07-01T12:24:48;1.55;;;0.30;;
57605;SDS011;43430;48.204;11.556;2022-07-01T12:27:14;1.52;;;0.30;;
57605;SDS011;43430;48.204;11.556;2022-07-01T12:32:09;3.35;;;0.70;;
57605;SDS011;43430;48.204;11.556;2022-07-01T12:34:43;1.73;;;0.52;;
57605;SDS011;43430;48.204;11.556;2022-07-01T12:37:15;1.38;;;0.40;;
57605;SDS011;43430;48.204;11.556;2022-07-01T12:39:45;1.15;;;0.40;;
57605;SDS011;43430;48.204;11.556;2022-07-01T12:42:21;2.28;;;0.40;;
57605;SDS011;43430;48.204;11.556;2022-07-01T12:44:52;1.48;;;0.38;;
57605;SDS011;43430;48.204;11.556;2022-07-01T12:50:17;1.83;;;1.05;;
57605;SDS011;43430;48.204;11.556;2022-07-01T12:52:59;1.13;;;0.38;;
57605;SDS011;43430;48.204;11.556;2022-07-01T12:55:35;1.35;;;0.28;;
57605;SDS011;43430;48.204;11.556;2022-07-01T12:58:02;2.08;;;0.60;;
57605;SDS011;43430;48.204;11.556;2022-07-01T13:00:29;1.75;;;0.57;;
57605;SDS011;43430;48.204;11.556;2022-07-01T13:02:55;1.70;;;0.50;;
57605;SDS011;43430;48.204;11.556;2022-07-01T13:05:22;2.08;;;0.77;;
57605;SDS011;43430;48.204;11.556;2022-07-01T13:07:48;2.00;;;0.65;;
57605;SDS011;43430;48.204;11.556;2022-07-01T13:10:17;2.33;;;0.93;;
57605;SDS011;43430;48.204;11.556;2022-07-01T13:12:44;2.65;;;0.73;;
57605;SDS011;43430;48.204;11.556;2022-07-01T13:15:11;2.05;;;0.95;;
57605;SDS011;43430;48.204;11.556;2022-07-01T13:17:38;2.40;;;1.10;;
57605;SDS011;43430;48.204;11.556;2022-07-01T13:20:07;4.38;;;1.67;;
57605;SDS011;43430;48.204;11.556;2022-07-01T13:22:33;2.70;;;1.27;;
57605;SDS011;43430;48.204;11.556;2022-07-01T13:24:59;3.42;;;1.13;;
57605;SDS011;43430;48.204;11.556;2022-07-01T13:27:24;2.53;;;1.02;;
57605;SDS011;43430;48.204;11.556;2022-07-01T13:29:50;3.75;;;1.20;;
57605;SDS011;43430;48.204;11.556;2022-07-01T13:32:15;2.83;;;1.25;;
57605;SDS011;43430;48.204;11.556;2022-07-01T13:34:41;3.17;;;1.35;;
57605;SDS011;43430;48.204;11.556;2022-07-01T13:37:06;4.38;;;1.40;;
57605;SDS011;43430;48.204;11.556;2022-07-01T13:39:32;2.28;;;1.20;;
57605;SDS011;43430;48.204;11.556;2022-07-01T13:41:57;4.38;;;1.65;;
57605;SDS011;43430;48.204;11.556;2022-07-01T13:44:23;3.35;;;1.20;;
57605;SDS011;43430;48.204;11.556;2022-07-01T13:46:48;2.63;;;1.10;;
57605;SDS011;43430;48.204;11.556;2022-07-01T13:49:14;2.50;;;1.08;;
57605;SDS011;43430;48.204;11.556;2022-07-01T13:51:39;2.40;;;0.80;;
57605;SDS011;43430;48.204;11.556;2022-07-01T13:54:05;2.83;;;1.10;;
57605;SDS011;43430;48.204;11.556;2022-07-01T13:56:30;4.88;;;1.45;;
57605;SDS011;43430;48.204;11.556;2022-07-01T13:58:56;4.07;;;1.67;;
57605;SDS011;43430;48.204;11.556;2022-07-01T14:01:21;4.72;;;1.52;;
57605;SDS011;43430;48.204;11.556;2022-07-01T14:03:50;3.17;;;1.30;;
57605;SDS011;43430;48.204;11.556;2022-07-01T14:06:16;3.33;;;0.90;;
57605;SDS011;43430;48.204;11.556;2022-07-01T14:08:41;2.95;;;1.20;;
57605;SDS011;43430;48.204;11.556;2022-07-01T14:11:07;2.00;;;0.82;;
57605;SDS011;43430;48.204;11.556;2022-07-01T14:13:32;1.95;;;0.80;;
57605;SDS011;43430;48.204;11.556;2022-07-01T14:15:59;2.60;;;0.90;;
57605;SDS011;43430;48.204;11.556;2022-07-01T14:18:25;3.03;;;0.90;;
57605;SDS011;43430;48.204;11.556;2022-07-01T14:20:50;3.60;;;1.02;;
57605;SDS011;43430;48.204;11.556;2022-07-01T14:23:16;3.05;;;1.02;;
57605;SDS011;43430;48.204;11.556;2022-07-01T14:25:41;3.72;;;1.25;;
57605;SDS011;43430;48.204;11.556;2022-07-01T14:28:08;3.20;;;1.42;;
57605;SDS011;43430;48.204;11.556;2022-07-01T14:30:33;2.97;;;1.10;;
57605;SDS011;43430;48.204;11.556;2022-07-01T14:32:59;5.00;;;1.15;;
57605;SDS011;43430;48.204;11.556;2022-07-01T14:35:29;3.85;;;1.52;;
57605;SDS011;43430;48.204;11.556;2022-07-01T14:37:55;3.72;;;1.13;;
57605;SDS011;43430;48.204;11.556;2022-07-01T14:40:20;3.58;;;1.65;;
57605;SDS011;43430;48.204;11.556;2022-07-01T14:42:46;4.43;;;1.80;;
57605;SDS011;43430;48.204;11.556;2022-07-01T14:45:12;3.20;;;1.50;;
57605;SDS011;43430;48.204;11.556;2022-07-01T14:47:41;3.60;;;1.15;;
57605;SDS011;43430;48.204;11.556;2022-07-01T14:50:08;6.38;;;1.90;;
57605;SDS011;43430;48.204;11.556;2022-07-01T14:52:34;3.72;;;1.65;;
57605;SDS011;43430;48.204;11.556;2022-07-01T14:54:59;3.47;;;1.73;;
57605;SDS011;43430;48.204;11.556;2022-07-01T14:57:28;5.50;;;2.00;;
57605;SDS011;43430;48.204;11.556;2022-07-01T14:59:56;4.85;;;2.20;;
57605;SDS011;43430;48.204;11.556;2022-07-01T15:02:23;2.42;;;1.00;;